sensor_id;sensor_type;location;lat;lon;timestamp;P1;durP1;ratioP1;P2;durP2;ratioP2
3597;SDS011;1813;52.016;8.714;2023-06-22T00:00:31;14.40;;;12.40;;
3597;SDS011;1813;52.016;8.714;2023-06-22T00:03:05;15.20;;;12.50;;
3597;SDS011;1813;52.016;8.714;2023-06-22T00:05:39;14.17;;;11.77;;
3597;SDS011;1813;52.016;8.714;2023-06-22T00:08:13;13.10;;;11.80;;
3597;SDS011;1813;52.016;8.714;2023-06-22T00:10:47;15.13;;;12.73;;
3597;SDS011;1813;52.016;8.714;2023-06-22T00:13:21;16.80;;;13.10;;
3597;SDS011;1813;52.016;8.714;2023-06-22T00:15:58;20.63;;;12.50;;
3597;SDS011;1813;52.016;8.714;2023-06-22T00:18:31;16.03;;;13.00;;
3597;SDS011;1813;52.016;8.714;2023-06-22T00:21:05;18.60;;;13.93;;
3597;SDS011;1813;52.016;8.714;2023-06-22T00:23:39;20.50;;;13.07;;
3597;SDS011;1813;52.016;8.714;2023-06-22T00:26:13;16.60;;;12.00;;
3597;SDS011;1813;52.016;8.714;2023-06-22T00:28:47;18.13;;;12.20;;
3597;SDS011;1813;52.016;8.714;2023-06-22T00:31:24;19.80;;;11.20;;
3597;SDS011;1813;52.016;8.714;2023-06-22T00:33:58;15.93;;;11.03;;
3597;SDS011;1813;52.016;8.714;2023-06-22T00:36:32;20.93;;;12.23;;
3597;SDS011;1813;52.016;8.714;2023-06-22T00:39:07;17.20;;;12.40;;
3597;SDS011;1813;52.016;8.714;2023-06-22T00:41:41;14.67;;;11.70;;
3597;SDS011;1813;52.016;8.714;2023-06-22T00:44:15;18.03;;;12.50;;
3597;SDS011;1813;52.016;8.714;2023-06-22T00:46:51;18.10;;;12.63;;
3597;SDS011;1813;52.016;8.714;2023-06-22T00:49:25;18.90;;;12.43;;
3597;SDS011;1813;52.016;8.714;2023-06-22T00:51:59;17.67;;;12.10;;
3597;SDS011;1813;52.016;8.714;2023-06-22T00:54:33;26.13;;;12.07;;
3597;SDS011;1813;52.016;8.714;2023-06-22T00:57:07;26.57;;;12.10;;
3597;SDS011;1813;52.016;8.714;2023-06-22T00:59:41;21.63;;;12.10;;
3597;SDS011;1813;52.016;8.714;2023-06-22T01:02:18;23.50;;;12.93;;
3597;SDS011;1813;52.016;8.714;2023-06-22T01:04:52;17.37;;;12.43;;
3597;SDS011;1813;52.016;8.714;2023-06-22T01:07:27;21.53;;;13.90;;
3597;SDS011;1813;52.016;8.714;2023-06-22T01:10:14;25.40;;;13.80;;
3597;SDS011;1813;52.016;8.714;2023-06-22T01:12:55;19.10;;;14.40;;
3597;SDS011;1813;52.016;8.714;2023-06-22T01:15:33;19.47;;;13.53;;
3597;SDS011;1813;52.016;8.714;2023-06-22T01:18:13;22.50;;;13.63;;
3597;SDS011;1813;52.016;8.714;2023-06-22T01:20:48;20.40;;;14.40;;
3597;SDS011;1813;52.016;8.714;2023-06-22T01:23:26;18.07;;;13.50;;
3597;SDS011;1813;52.016;8.714;2023-06-22T01:26:08;28.10;;;14.97;;
3597;SDS011;1813;52.016;8.714;2023-06-22T01:28:54;26.90;;;15.30;;
3597;SDS011;1813;52.016;8.714;2023-06-22T01:31:32;29.10;;;14.37;;
3597;SDS011;1813;52.016;8.714;2023-06-22T01:34:07;18.50;;;14.23;;
3597;SDS011;1813;52.016;8.714;2023-06-22T01:36:43;16.73;;;13.53;;
3597;SDS011;1813;52.016;8.714;2023-06-22T01:39:17;25.70;;;13.87;;
3597;SDS011;1813;52.016;8.714;2023-06-22T01:41:51;24.50;;;13.60;;
3597;SDS011;1813;52.016;8.714;2023-06-22T01:44:29;22.17;;;15.03;;
3597;SDS011;1813;52.016;8.714;2023-06-22T01:47:03;23.17;;;14.40;;
3597;SDS011;1813;52.016;8.714;2023-06-22T01:49:37;25.73;;;15.80;;
3597;SDS011;1813;52.016;8.714;2023-06-22T01:52:11;18.57;;;14.80;;
3597;SDS011;1813;52.016;8.714;2023-06-22T01:54:45;25.00;;;16.10;;
3597;SDS011;1813;52.016;8.714;2023-06-22T01:57:19;25.50;;;14.43;;
3597;SDS011;1813;52.016;8.714;2023-06-22T01:59:57;27.23;;;15.60;;
3597;SDS011;1813;52.016;8.714;2023-06-22T02:02:36;21.00;;;15.40;;
3597;SDS011;1813;52.016;8.714;2023-06-22T02:05:15;19.20;;;14.63;;
3597;SDS011;1813;52.016;8.714;2023-06-22T02:07:52;24.27;;;15.53;;
3597;SDS011;1813;52.016;8.714;2023-06-22T02:10:29;23.57;;;15.07;;
3597;SDS011;1813;52.016;8.714;2023-06-22T02:13:06;27.00;;;15.50;;
3597;SDS011;1813;52.016;8.714;2023-06-22T02:15:43;24.30;;;15.67;;
3597;SDS011;1813;52.016;8.714;2023-06-22T02:18:18;18.87;;;15.37;;
3597;SDS011;1813;52.016;8.714;2023-06-22T02:20:52;15.70;;;13.83;;
3597;SDS011;1813;52.016;8.714;2023-06-22T02:23:27;23.57;;;14.70;;
3597;SDS011;1813;52.016;8.714;2023-06-22T02:26:00;16.67;;;13.87;;
3597;SDS011;1813;52.016;8.714;2023-06-22T02:28:36;20.10;;;14.00;;
3597;SDS011;1813;52.016;8.714;2023-06-22T02:31:12;18.00;;;14.20;;
3597;SDS011;1813;52.016;8.714;2023-06-22T02:33:46;19.47;;;13.87;;
3597;SDS011;1813;52.016;8.714;2023-06-22T02:36:23;17.27;;;13.43;;
3597;SDS011;1813;52.016;8.714;2023-06-22T02:38:58;20.50;;;13.60;;
3597;SDS011;1813;52.016;8.714;2023-06-22T02:41:34;19.03;;;13.80;;
3597;SDS011;1813;52.016;8.714;2023-06-22T02:44:08;22.70;;;13.50;;
3597;SDS011;1813;52.016;8.714;2023-06-22T02:46:45;23.53;;;13.47;;
3597;SDS011;1813;52.016;8.714;2023-06-22T02:49:20;18.70;;;13.83;;
3597;SDS011;1813;52.016;8.714;2023-06-22T02:51:57;17.90;;;12.63;;
3597;SDS011;1813;52.016;8.714;2023-06-22T02:54:31;24.57;;;13.50;;
3597;SDS011;1813;52.016;8.714;2023-06-22T02:57:05;21.20;;;12.90;;
3597;SDS011;1813;52.016;8.714;2023-06-22T02:59:44;21.80;;;12.93;;
3597;SDS011;1813;52.016;8.714;2023-06-22T03:02:22;21.23;;;13.60;;
3597;SDS011;1813;52.016;8.714;2023-06-22T03:04:56;28.70;;;13.30;;
3597;SDS011;1813;52.016;8.714;2023-06-22T03:07:33;36.17;;;14.03;;
3597;SDS011;1813;52.016;8.714;2023-06-22T03:10:08;29.93;;;12.40;;
3597;SDS011;1813;52.016;8.714;2023-06-22T03:12:43;27.90;;;12.60;;
3597;SDS011;1813;52.016;8.714;2023-06-22T03:15:17;32.07;;;12.80;;
3597;SDS011;1813;52.016;8.714;2023-06-22T03:17:53;24.33;;;12.83;;
3597;SDS011;1813;52.016;8.714;2023-06-22T03:20:27;20.73;;;13.70;;
3597;SDS011;1813;52.016;8.714;2023-06-22T03:23:03;22.23;;;13.90;;
3597;SDS011;1813;52.016;8.714;2023-06-22T03:25:37;27.37;;;13.87;;
3597;SDS011;1813;52.016;8.714;2023-06-22T03:28:11;18.27;;;13.40;;
3597;SDS011;1813;52.016;8.714;2023-06-22T03:30:45;19.47;;;13.50;;
3597;SDS011;1813;52.016;8.714;2023-06-22T03:33:23;19.60;;;13.60;;
3597;SDS011;1813;52.016;8.714;2023-06-22T03:35:57;22.37;;;14.13;;
3597;SDS011;1813;52.016;8.714;2023-06-22T03:38:32;19.23;;;13.60;;
3597;SDS011;1813;52.016;8.714;2023-06-22T03:41:05;18.93;;;12.97;;
3597;SDS011;1813;52.016;8.714;2023-06-22T03:43:39;18.97;;;12.63;;
3597;SDS011;1813;52.016;8.714;2023-06-22T03:46:13;17.77;;;12.83;;
3597;SDS011;1813;52.016;8.714;2023-06-22T03:48:50;24.40;;;15.43;;
3597;SDS011;1813;52.016;8.714;2023-06-22T03:51:24;16.93;;;13.53;;
3597;SDS011;1813;52.016;8.714;2023-06-22T03:53:58;22.90;;;13.20;;
3597;SDS011;1813;52.016;8.714;2023-06-22T03:56:31;21.13;;;14.10;;
3597;SDS011;1813;52.016;8.714;2023-06-22T03:59:05;21.80;;;15.20;;
3597;SDS011;1813;52.016;8.714;2023-06-22T04:01:39;36.17;;;13.80;;
3597;SDS011;1813;52.016;8.714;2023-06-22T04:04:15;36.47;;;14.03;;
3597;SDS011;1813;52.016;8.714;2023-06-22T04:06:49;28.80;;;13.30;;
3597;SDS011;1813;52.016;8.714;2023-06-22T04:09:23;27.93;;;14.87;;
3597;SDS011;1813;52.016;8.714;2023-06-22T04:11:57;21.97;;;15.67;;
3597;SDS011;1813;52.016;8.714;2023-06-22T04:14:30;24.00;;;16.23;;
3597;SDS011;1813;52.016;8.714;2023-06-22T04:17:04;23.90;;;15.23;;
3597;SDS011;1813;52.016;8.714;2023-06-22T04:19:40;23.53;;;15.93;;
3597;SDS011;1813;52.016;8.714;2023-06-22T04:22:14;28.80;;;16.00;;
3597;SDS011;1813;52.016;8.714;2023-06-22T04:24:49;28.43;;;16.73;;
3597;SDS011;1813;52.016;8.714;2023-06-22T04:27:23;21.20;;;16.23;;
3597;SDS011;1813;52.016;8.714;2023-06-22T04:29:57;31.07;;;15.87;;
3597;SDS011;1813;52.016;8.714;2023-06-22T04:32:31;25.37;;;16.67;;
3597;SDS011;1813;52.016;8.714;2023-06-22T04:35:09;28.17;;;17.00;;
3597;SDS011;1813;52.016;8.714;2023-06-22T04:37:46;26.73;;;17.23;;
3597;SDS011;1813;52.016;8.714;2023-06-22T04:40:20;28.10;;;16.17;;
3597;SDS011;1813;52.016;8.714;2023-06-22T04:42:55;30.83;;;16.03;;
3597;SDS011;1813;52.016;8.714;2023-06-22T04:45:32;22.00;;;16.20;;
3597;SDS011;1813;52.016;8.714;2023-06-22T04:48:08;32.57;;;16.47;;
3597;SDS011;1813;52.016;8.714;2023-06-22T04:50:48;28.63;;;17.80;;
3597;SDS011;1813;52.016;8.714;2023-06-22T04:53:23;22.73;;;16.67;;
3597;SDS011;1813;52.016;8.714;2023-06-22T04:56:00;23.53;;;17.63;;
3597;SDS011;1813;52.016;8.714;2023-06-22T04:58:34;28.33;;;18.03;;
3597;SDS011;1813;52.016;8.714;2023-06-22T05:01:08;26.30;;;18.70;;
3597;SDS011;1813;52.016;8.714;2023-06-22T05:03:42;27.97;;;19.53;;
3597;SDS011;1813;52.016;8.714;2023-06-22T05:06:18;23.40;;;18.37;;
3597;SDS011;1813;52.016;8.714;2023-06-22T05:08:52;29.23;;;19.93;;
3597;SDS011;1813;52.016;8.714;2023-06-22T05:11:28;26.67;;;20.30;;
3597;SDS011;1813;52.016;8.714;2023-06-22T05:14:02;29.17;;;20.13;;
3597;SDS011;1813;52.016;8.714;2023-06-22T05:16:37;25.97;;;19.67;;
3597;SDS011;1813;52.016;8.714;2023-06-22T05:19:12;21.90;;;19.50;;
3597;SDS011;1813;52.016;8.714;2023-06-22T05:21:48;35.33;;;19.40;;
3597;SDS011;1813;52.016;8.714;2023-06-22T05:24:22;23.80;;;20.20;;
3597;SDS011;1813;52.016;8.714;2023-06-22T05:26:56;25.37;;;20.13;;
3597;SDS011;1813;52.016;8.714;2023-06-22T05:29:29;23.63;;;19.40;;
3597;SDS011;1813;52.016;8.714;2023-06-22T05:32:03;24.20;;;18.53;;
3597;SDS011;1813;52.016;8.714;2023-06-22T05:34:38;23.73;;;19.80;;
3597;SDS011;1813;52.016;8.714;2023-06-22T05:37:14;28.20;;;19.50;;
3597;SDS011;1813;52.016;8.714;2023-06-22T05:39:48;26.87;;;20.10;;
3597;SDS011;1813;52.016;8.714;2023-06-22T05:42:22;28.80;;;20.17;;
3597;SDS011;1813;52.016;8.714;2023-06-22T05:44:56;23.43;;;20.30;;
3597;SDS011;1813;52.016;8.714;2023-06-22T05:47:29;28.07;;;19.77;;
3597;SDS011;1813;52.016;8.714;2023-06-22T05:50:03;23.50;;;18.70;;
3597;SDS011;1813;52.016;8.714;2023-06-22T05:52:41;25.77;;;18.60;;
3597;SDS011;1813;52.016;8.714;2023-06-22T05:55:15;25.83;;;19.93;;
3597;SDS011;1813;52.016;8.714;2023-06-22T05:57:49;31.70;;;20.30;;
3597;SDS011;1813;52.016;8.714;2023-06-22T06:00:22;26.47;;;20.23;;
3597;SDS011;1813;52.016;8.714;2023-06-22T06:02:56;26.33;;;19.77;;
3597;SDS011;1813;52.016;8.714;2023-06-22T06:05:33;25.13;;;19.40;;
3597;SDS011;1813;52.016;8.714;2023-06-22T06:08:10;27.33;;;19.70;;
3597;SDS011;1813;52.016;8.714;2023-06-22T06:10:44;35.40;;;20.13;;
3597;SDS011;1813;52.016;8.714;2023-06-22T06:13:18;23.83;;;19.70;;
3597;SDS011;1813;52.016;8.714;2023-06-22T06:15:52;23.57;;;20.10;;
3597;SDS011;1813;52.016;8.714;2023-06-22T06:18:26;28.23;;;20.50;;
3597;SDS011;1813;52.016;8.714;2023-06-22T06:20:59;26.10;;;19.83;;
3597;SDS011;1813;52.016;8.714;2023-06-22T06:23:36;27.03;;;19.97;;
3597;SDS011;1813;52.016;8.714;2023-06-22T06:26:09;25.90;;;20.37;;
3597;SDS011;1813;52.016;8.714;2023-06-22T06:28:44;26.30;;;20.50;;
3597;SDS011;1813;52.016;8.714;2023-06-22T06:31:19;26.63;;;21.23;;
3597;SDS011;1813;52.016;8.714;2023-06-22T06:33:53;21.70;;;18.77;;
3597;SDS011;1813;52.016;8.714;2023-06-22T06:36:27;24.90;;;20.97;;
3597;SDS011;1813;52.016;8.714;2023-06-22T06:39:03;28.17;;;20.43;;
3597;SDS011;1813;52.016;8.714;2023-06-22T06:41:38;25.87;;;21.00;;
3597;SDS011;1813;52.016;8.714;2023-06-22T06:44:19;22.00;;;18.13;;
3597;SDS011;1813;52.016;8.714;2023-06-22T06:46:52;26.33;;;19.03;;
3597;SDS011;1813;52.016;8.714;2023-06-22T06:49:26;21.83;;;19.53;;
3597;SDS011;1813;52.016;8.714;2023-06-22T06:52:00;28.70;;;20.33;;
3597;SDS011;1813;52.016;8.714;2023-06-22T06:54:36;25.63;;;21.00;;
3597;SDS011;1813;52.016;8.714;2023-06-22T06:57:12;24.50;;;20.80;;
3597;SDS011;1813;52.016;8.714;2023-06-22T06:59:46;28.33;;;19.90;;
3597;SDS011;1813;52.016;8.714;2023-06-22T07:02:19;26.03;;;20.37;;
3597;SDS011;1813;52.016;8.714;2023-06-22T07:04:53;25.10;;;20.20;;
3597;SDS011;1813;52.016;8.714;2023-06-22T07:07:28;25.37;;;20.83;;
3597;SDS011;1813;52.016;8.714;2023-06-22T07:10:05;24.50;;;20.53;;
3597;SDS011;1813;52.016;8.714;2023-06-22T07:12:40;23.50;;;19.20;;
3597;SDS011;1813;52.016;8.714;2023-06-22T07:15:13;23.73;;;19.00;;
3597;SDS011;1813;52.016;8.714;2023-06-22T07:17:47;25.97;;;19.30;;
3597;SDS011;1813;52.016;8.714;2023-06-22T07:20:21;23.90;;;18.97;;
3597;SDS011;1813;52.016;8.714;2023-06-22T07:22:54;23.43;;;19.33;;
3597;SDS011;1813;52.016;8.714;2023-06-22T07:25:31;22.33;;;18.90;;
3597;SDS011;1813;52.016;8.714;2023-06-22T07:28:05;21.27;;;17.67;;
3597;SDS011;1813;52.016;8.714;2023-06-22T07:30:40;22.80;;;18.83;;
3597;SDS011;1813;52.016;8.714;2023-06-22T07:33:14;22.40;;;18.47;;
3597;SDS011;1813;52.016;8.714;2023-06-22T07:35:47;23.20;;;18.80;;
3597;SDS011;1813;52.016;8.714;2023-06-22T07:38:22;26.10;;;19.33;;
3597;SDS011;1813;52.016;8.714;2023-06-22T07:40:59;22.63;;;18.43;;
3597;SDS011;1813;52.016;8.714;2023-06-22T07:43:35;23.40;;;18.77;;
3597;SDS011;1813;52.016;8.714;2023-06-22T07:46:09;24.00;;;19.30;;
3597;SDS011;1813;52.016;8.714;2023-06-22T07:48:43;25.27;;;19.13;;
3597;SDS011;1813;52.016;8.714;2023-06-22T07:51:16;22.83;;;19.10;;
3597;SDS011;1813;52.016;8.714;2023-06-22T07:53:50;20.90;;;18.20;;
3597;SDS011;1813;52.016;8.714;2023-06-22T07:56:27;22.47;;;18.77;;
3597;SDS011;1813;52.016;8.714;2023-06-22T07:59:01;21.77;;;18.73;;
3597;SDS011;1813;52.016;8.714;2023-06-22T08:01:34;21.23;;;18.77;;
3597;SDS011;1813;52.016;8.714;2023-06-22T08:04:08;22.37;;;19.57;;
3597;SDS011;1813;52.016;8.714;2023-06-22T08:06:42;21.73;;;19.43;;
3597;SDS011;1813;52.016;8.714;2023-06-22T08:09:15;27.80;;;19.93;;
3597;SDS011;1813;52.016;8.714;2023-06-22T08:11:52;25.53;;;19.20;;
3597;SDS011;1813;52.016;8.714;2023-06-22T08:14:26;27.10;;;20.43;;
3597;SDS011;1813;52.016;8.714;2023-06-22T08:17:01;27.03;;;20.53;;
3597;SDS011;1813;52.016;8.714;2023-06-22T08:19:34;27.93;;;21.80;;
3597;SDS011;1813;52.016;8.714;2023-06-22T08:22:09;26.30;;;20.10;;
3597;SDS011;1813;52.016;8.714;2023-06-22T08:24:43;27.20;;;20.83;;
3597;SDS011;1813;52.016;8.714;2023-06-22T08:27:19;30.97;;;20.83;;
3597;SDS011;1813;52.016;8.714;2023-06-22T08:29:54;30.20;;;20.57;;
3597;SDS011;1813;52.016;8.714;2023-06-22T08:32:29;24.00;;;20.20;;
3597;SDS011;1813;52.016;8.714;2023-06-22T08:35:03;32.70;;;20.60;;
3597;SDS011;1813;52.016;8.714;2023-06-22T08:37:38;31.53;;;21.77;;
3597;SDS011;1813;52.016;8.714;2023-06-22T08:40:12;21.67;;;18.90;;
3597;SDS011;1813;52.016;8.714;2023-06-22T08:42:48;26.30;;;19.53;;
3597;SDS011;1813;52.016;8.714;2023-06-22T08:45:22;24.13;;;19.13;;
3597;SDS011;1813;52.016;8.714;2023-06-22T08:47:56;29.30;;;19.77;;
3597;SDS011;1813;52.016;8.714;2023-06-22T08:50:30;20.93;;;18.30;;
3597;SDS011;1813;52.016;8.714;2023-06-22T08:53:04;19.00;;;17.00;;
3597;SDS011;1813;52.016;8.714;2023-06-22T08:55:37;21.43;;;17.20;;
3597;SDS011;1813;52.016;8.714;2023-06-22T08:58:14;19.83;;;16.30;;
3597;SDS011;1813;52.016;8.714;2023-06-22T09:00:48;20.53;;;16.50;;
3597;SDS011;1813;52.016;8.714;2023-06-22T09:03:22;20.43;;;16.67;;
3597;SDS011;1813;52.016;8.714;2023-06-22T09:05:57;19.43;;;15.30;;
3597;SDS011;1813;52.016;8.714;2023-06-22T09:08:31;16.57;;;14.87;;
3597;SDS011;1813;52.016;8.714;2023-06-22T09:11:05;16.50;;;14.80;;
3597;SDS011;1813;52.016;8.714;2023-06-22T09:13:41;20.37;;;17.00;;
3597;SDS011;1813;52.016;8.714;2023-06-22T09:16:16;21.10;;;16.77;;
3597;SDS011;1813;52.016;8.714;2023-06-22T09:18:50;20.57;;;16.47;;
3597;SDS011;1813;52.016;8.714;2023-06-22T09:21:24;19.07;;;15.90;;
3597;SDS011;1813;52.016;8.714;2023-06-22T09:23:57;19.70;;;17.00;;
3597;SDS011;1813;52.016;8.714;2023-06-22T09:26:31;19.00;;;16.53;;
3597;SDS011;1813;52.016;8.714;2023-06-22T09:29:08;19.47;;;17.47;;
3597;SDS011;1813;52.016;8.714;2023-06-22T09:31:41;24.23;;;17.23;;
3597;SDS011;1813;52.016;8.714;2023-06-22T09:34:15;24.50;;;17.83;;
3597;SDS011;1813;52.016;8.714;2023-06-22T09:36:50;21.00;;;17.00;;
3597;SDS011;1813;52.016;8.714;2023-06-22T09:39:24;20.97;;;18.03;;
3597;SDS011;1813;52.016;8.714;2023-06-22T09:41:58;23.67;;;18.10;;
3597;SDS011;1813;52.016;8.714;2023-06-22T09:44:35;20.70;;;18.50;;
3597;SDS011;1813;52.016;8.714;2023-06-22T09:47:09;26.20;;;19.20;;
3597;SDS011;1813;52.016;8.714;2023-06-22T09:49:42;26.60;;;17.80;;
3597;SDS011;1813;52.016;8.714;2023-06-22T09:52:16;21.43;;;16.20;;
3597;SDS011;1813;52.016;8.714;2023-06-22T09:54:50;20.80;;;15.60;;
3597;SDS011;1813;52.016;8.714;2023-06-22T09:57:24;19.50;;;15.60;;
3597;SDS011;1813;52.016;8.714;2023-06-22T10:00:00;27.80;;;15.47;;
3597;SDS011;1813;52.016;8.714;2023-06-22T10:02:36;15.73;;;14.10;;
3597;SDS011;1813;52.016;8.714;2023-06-22T10:05:09;16.43;;;14.73;;
3597;SDS011;1813;52.016;8.714;2023-06-22T10:07:43;20.70;;;14.07;;
3597;SDS011;1813;52.016;8.714;2023-06-22T10:10:17;16.60;;;13.70;;
3597;SDS011;1813;52.016;8.714;2023-06-22T10:12:54;14.60;;;11.87;;
3597;SDS011;1813;52.016;8.714;2023-06-22T10:15:33;12.33;;;11.13;;
3597;SDS011;1813;52.016;8.714;2023-06-22T10:18:07;12.07;;;10.83;;
3597;SDS011;1813;52.016;8.714;2023-06-22T10:20:42;12.87;;;11.63;;
3597;SDS011;1813;52.016;8.714;2023-06-22T10:23:17;14.53;;;12.00;;
3597;SDS011;1813;52.016;8.714;2023-06-22T10:25:52;14.47;;;12.97;;
3597;SDS011;1813;52.016;8.714;2023-06-22T10:28:28;13.10;;;11.73;;
3597;SDS011;1813;52.016;8.714;2023-06-22T10:31:05;12.67;;;11.37;;
3597;SDS011;1813;52.016;8.714;2023-06-22T10:33:39;12.20;;;11.10;;
3597;SDS011;1813;52.016;8.714;2023-06-22T10:36:14;18.23;;;12.03;;
3597;SDS011;1813;52.016;8.714;2023-06-22T10:38:48;12.30;;;11.20;;
3597;SDS011;1813;52.016;8.714;2023-06-22T10:41:23;13.30;;;12.10;;
3597;SDS011;1813;52.016;8.714;2023-06-22T10:44:00;13.90;;;12.20;;
3597;SDS011;1813;52.016;8.714;2023-06-22T10:46:36;12.60;;;11.50;;
3597;SDS011;1813;52.016;8.714;2023-06-22T10:49:10;12.23;;;10.60;;
3597;SDS011;1813;52.016;8.714;2023-06-22T10:51:44;11.00;;;9.90;;
3597;SDS011;1813;52.016;8.714;2023-06-22T10:54:18;11.23;;;10.23;;
3597;SDS011;1813;52.016;8.714;2023-06-22T10:56:51;13.10;;;10.80;;
3597;SDS011;1813;52.016;8.714;2023-06-22T10:59:25;10.73;;;9.83;;
3597;SDS011;1813;52.016;8.714;2023-06-22T11:02:02;10.60;;;9.70;;
3597;SDS011;1813;52.016;8.714;2023-06-22T11:04:36;11.40;;;10.40;;
3597;SDS011;1813;52.016;8.714;2023-06-22T11:07:10;11.37;;;9.67;;
3597;SDS011;1813;52.016;8.714;2023-06-22T11:09:43;11.27;;;9.30;;
3597;SDS011;1813;52.016;8.714;2023-06-22T11:12:17;10.40;;;9.50;;
3597;SDS011;1813;52.016;8.714;2023-06-22T11:14:51;11.10;;;8.83;;
3597;SDS011;1813;52.016;8.714;2023-06-22T11:17:30;10.10;;;9.10;;
3597;SDS011;1813;52.016;8.714;2023-06-22T11:20:04;10.93;;;8.80;;
3597;SDS011;1813;52.016;8.714;2023-06-22T11:22:41;10.00;;;9.10;;
3597;SDS011;1813;52.016;8.714;2023-06-22T11:25:15;16.40;;;9.90;;
3597;SDS011;1813;52.016;8.714;2023-06-22T11:27:49;18.23;;;9.80;;
3597;SDS011;1813;52.016;8.714;2023-06-22T11:30:24;10.47;;;9.57;;
3597;SDS011;1813;52.016;8.714;2023-06-22T11:33:00;10.93;;;9.03;;
3597;SDS011;1813;52.016;8.714;2023-06-22T11:35:35;9.73;;;8.67;;
3597;SDS011;1813;52.016;8.714;2023-06-22T11:38:08;9.37;;;8.47;;
3597;SDS011;1813;52.016;8.714;2023-06-22T11:40:44;9.20;;;8.40;;
3597;SDS011;1813;52.016;8.714;2023-06-22T11:43:18;9.73;;;8.90;;
3597;SDS011;1813;52.016;8.714;2023-06-22T11:45:52;9.63;;;8.63;;
3597;SDS011;1813;52.016;8.714;2023-06-22T11:48:29;11.07;;;10.07;;
3597;SDS011;1813;52.016;8.714;2023-06-22T11:51:03;10.00;;;9.20;;
3597;SDS011;1813;52.016;8.714;2023-06-22T11:53:38;9.73;;;8.83;;
3597;SDS011;1813;52.016;8.714;2023-06-22T11:56:12;13.10;;;9.57;;
3597;SDS011;1813;52.016;8.714;2023-06-22T11:58:45;12.43;;;10.03;;
3597;SDS011;1813;52.016;8.714;2023-06-22T12:01:19;10.20;;;9.27;;
3597;SDS011;1813;52.016;8.714;2023-06-22T12:03:56;10.20;;;9.10;;
3597;SDS011;1813;52.016;8.714;2023-06-22T12:06:30;9.20;;;8.40;;
3597;SDS011;1813;52.016;8.714;2023-06-22T12:09:04;13.00;;;8.90;;
3597;SDS011;1813;52.016;8.714;2023-06-22T12:11:37;10.10;;;8.20;;
3597;SDS011;1813;52.016;8.714;2023-06-22T12:14:11;9.67;;;8.77;;
3597;SDS011;1813;52.016;8.714;2023-06-22T12:16:45;10.30;;;9.37;;
3597;SDS011;1813;52.016;8.714;2023-06-22T12:19:21;11.57;;;10.37;;
3597;SDS011;1813;52.016;8.714;2023-06-22T12:21:55;11.03;;;9.93;;
3597;SDS011;1813;52.016;8.714;2023-06-22T12:24:29;10.57;;;9.57;;
3597;SDS011;1813;52.016;8.714;2023-06-22T12:27:03;10.57;;;9.23;;
3597;SDS011;1813;52.016;8.714;2023-06-22T12:29:37;10.00;;;9.20;;
3597;SDS011;1813;52.016;8.714;2023-06-22T12:32:11;10.50;;;9.60;;
3597;SDS011;1813;52.016;8.714;2023-06-22T12:34:48;10.57;;;9.50;;
3597;SDS011;1813;52.016;8.714;2023-06-22T12:37:22;10.20;;;9.10;;
3597;SDS011;1813;52.016;8.714;2023-06-22T12:39:56;10.37;;;9.30;;
3597;SDS011;1813;52.016;8.714;2023-06-22T12:42:29;11.83;;;10.03;;
3597;SDS011;1813;52.016;8.714;2023-06-22T12:45:03;10.53;;;9.50;;
3597;SDS011;1813;52.016;8.714;2023-06-22T12:47:38;10.83;;;9.80;;
3597;SDS011;1813;52.016;8.714;2023-06-22T12:50:15;15.23;;;10.33;;
3597;SDS011;1813;52.016;8.714;2023-06-22T12:52:48;11.00;;;9.80;;
3597;SDS011;1813;52.016;8.714;2023-06-22T12:55:22;18.43;;;10.23;;
3597;SDS011;1813;52.016;8.714;2023-06-22T12:57:56;15.57;;;10.30;;
3597;SDS011;1813;52.016;8.714;2023-06-22T13:00:29;11.50;;;10.30;;
3597;SDS011;1813;52.016;8.714;2023-06-22T13:03:03;11.43;;;10.33;;
3597;SDS011;1813;52.016;8.714;2023-06-22T13:05:40;12.60;;;11.40;;
3597;SDS011;1813;52.016;8.714;2023-06-22T13:08:13;12.70;;;11.40;;
3597;SDS011;1813;52.016;8.714;2023-06-22T13:10:47;15.60;;;12.00;;
3597;SDS011;1813;52.016;8.714;2023-06-22T13:13:21;13.47;;;12.07;;
3597;SDS011;1813;52.016;8.714;2023-06-22T13:15:55;15.90;;;11.60;;
3597;SDS011;1813;52.016;8.714;2023-06-22T13:18:29;14.97;;;12.20;;
3597;SDS011;1813;52.016;8.714;2023-06-22T13:21:06;14.80;;;12.97;;
3597;SDS011;1813;52.016;8.714;2023-06-22T13:23:40;25.70;;;13.67;;
3597;SDS011;1813;52.016;8.714;2023-06-22T13:26:14;39.57;;;14.50;;
3597;SDS011;1813;52.016;8.714;2023-06-22T13:28:48;24.50;;;14.77;;
3597;SDS011;1813;52.016;8.714;2023-06-22T13:31:21;22.07;;;14.77;;
3597;SDS011;1813;52.016;8.714;2023-06-22T13:33:55;19.40;;;13.93;;
3597;SDS011;1813;52.016;8.714;2023-06-22T13:36:31;20.70;;;15.70;;
3597;SDS011;1813;52.016;8.714;2023-06-22T13:39:05;20.90;;;15.00;;
3597;SDS011;1813;52.016;8.714;2023-06-22T13:41:39;21.60;;;16.10;;
3597;SDS011;1813;52.016;8.714;2023-06-22T13:44:14;20.70;;;15.67;;
3597;SDS011;1813;52.016;8.714;2023-06-22T13:46:48;22.30;;;16.70;;
3597;SDS011;1813;52.016;8.714;2023-06-22T13:49:21;53.67;;;45.50;;
3597;SDS011;1813;52.016;8.714;2023-06-22T13:51:58;19.40;;;17.10;;
3597;SDS011;1813;52.016;8.714;2023-06-22T13:54:33;28.73;;;18.43;;
3597;SDS011;1813;52.016;8.714;2023-06-22T13:57:07;20.57;;;16.63;;
3597;SDS011;1813;52.016;8.714;2023-06-22T13:59:41;28.63;;;18.67;;
3597;SDS011;1813;52.016;8.714;2023-06-22T14:02:15;25.67;;;19.40;;
3597;SDS011;1813;52.016;8.714;2023-06-22T14:04:49;25.70;;;20.40;;
3597;SDS011;1813;52.016;8.714;2023-06-22T14:07:25;30.73;;;20.10;;
3597;SDS011;1813;52.016;8.714;2023-06-22T14:09:59;40.07;;;20.83;;
3597;SDS011;1813;52.016;8.714;2023-06-22T14:12:33;21.63;;;17.60;;
3597;SDS011;1813;52.016;8.714;2023-06-22T14:15:07;18.03;;;14.07;;
3597;SDS011;1813;52.016;8.714;2023-06-22T14:17:41;14.47;;;10.50;;
3597;SDS011;1813;52.016;8.714;2023-06-22T14:20:15;10.27;;;8.57;;
3597;SDS011;1813;52.016;8.714;2023-06-22T14:22:51;16.00;;;10.80;;
3597;SDS011;1813;52.016;8.714;2023-06-22T14:25:25;13.43;;;12.00;;
3597;SDS011;1813;52.016;8.714;2023-06-22T14:27:58;21.13;;;16.03;;
3597;SDS011;1813;52.016;8.714;2023-06-22T14:30:32;22.00;;;17.03;;
3597;SDS011;1813;52.016;8.714;2023-06-22T14:33:06;24.53;;;19.00;;
3597;SDS011;1813;52.016;8.714;2023-06-22T14:35:42;25.27;;;20.10;;
3597;SDS011;1813;52.016;8.714;2023-06-22T14:38:18;25.60;;;21.30;;
3597;SDS011;1813;52.016;8.714;2023-06-22T14:40:52;28.03;;;21.03;;
3597;SDS011;1813;52.016;8.714;2023-06-22T14:43:26;23.70;;;20.47;;
3597;SDS011;1813;52.016;8.714;2023-06-22T14:46:00;35.70;;;23.30;;
3597;SDS011;1813;52.016;8.714;2023-06-22T14:48:34;30.63;;;24.10;;
3597;SDS011;1813;52.016;8.714;2023-06-22T14:51:08;32.73;;;24.63;;
3597;SDS011;1813;52.016;8.714;2023-06-22T14:53:45;31.17;;;24.30;;
3597;SDS011;1813;52.016;8.714;2023-06-22T14:56:19;35.80;;;24.77;;
3597;SDS011;1813;52.016;8.714;2023-06-22T14:58:53;31.03;;;24.83;;
3597;SDS011;1813;52.016;8.714;2023-06-22T15:01:27;35.73;;;25.63;;
3597;SDS011;1813;52.016;8.714;2023-06-22T15:04:00;33.37;;;25.60;;
3597;SDS011;1813;52.016;8.714;2023-06-22T15:06:34;34.10;;;26.20;;
3597;SDS011;1813;52.016;8.714;2023-06-22T15:09:10;35.40;;;26.17;;
3597;SDS011;1813;52.016;8.714;2023-06-22T15:11:44;36.80;;;27.00;;
3597;SDS011;1813;52.016;8.714;2023-06-22T15:14:18;33.33;;;26.53;;
3597;SDS011;1813;52.016;8.714;2023-06-22T15:16:52;33.70;;;26.67;;
3597;SDS011;1813;52.016;8.714;2023-06-22T15:19:25;35.83;;;27.40;;
3597;SDS011;1813;52.016;8.714;2023-06-22T15:21:59;34.80;;;27.70;;
3597;SDS011;1813;52.016;8.714;2023-06-22T15:24:36;38.37;;;29.17;;
3597;SDS011;1813;52.016;8.714;2023-06-22T15:27:09;39.50;;;30.43;;
3597;SDS011;1813;52.016;8.714;2023-06-22T15:29:44;40.50;;;30.33;;
3597;SDS011;1813;52.016;8.714;2023-06-22T15:32:18;39.10;;;29.80;;
3597;SDS011;1813;52.016;8.714;2023-06-22T15:34:52;44.03;;;30.90;;